sensor_id;sensor_type;location;lat;lon;timestamp;P1;durP1;ratioP1;P2;durP2;ratioP2
7340;SDS011;6870;50.944;6.932;2023-12-22T00:01:40;5.00;;;2.83;;
7340;SDS011;6870;50.944;6.932;2023-12-22T00:04:08;4.30;;;2.93;;
7340;SDS011;6870;50.944;6.932;2023-12-22T00:06:36;4.30;;;2.30;;
7340;SDS011;6870;50.944;6.932;2023-12-22T00:09:04;5.43;;;2.50;;
7340;SDS011;6870;50.944;6.932;2023-12-22T00:11:32;9.90;;;3.20;;
7340;SDS011;6870;50.944;6.932;2023-12-22T00:14:00;4.70;;;3.13;;
7340;SDS011;6870;50.944;6.932;2023-12-22T00:16:29;4.40;;;2.30;;
7340;SDS011;6870;50.944;6.932;2023-12-22T00:18:58;4.20;;;2.30;;
7340;SDS011;6870;50.944;6.932;2023-12-22T00:21:26;4.53;;;2.80;;
7340;SDS011;6870;50.944;6.932;2023-12-22T00:23:54;5.30;;;1.97;;
7340;SDS011;6870;50.944;6.932;2023-12-22T00:26:23;4.70;;;2.70;;
7340;SDS011;6870;50.944;6.932;2023-12-22T00:28:51;6.17;;;2.60;;
7340;SDS011;6870;50.944;6.932;2023-12-22T00:31:19;4.17;;;2.83;;
7340;SDS011;6870;50.944;6.932;2023-12-22T00:33:48;4.43;;;2.70;;
7340;SDS011;6870;50.944;6.932;2023-12-22T00:36:16;4.07;;;2.37;;
7340;SDS011;6870;50.944;6.932;2023-12-22T00:38:49;3.70;;;2.27;;
7340;SDS011;6870;50.944;6.932;2023-12-22T00:41:17;3.13;;;2.20;;
7340;SDS011;6870;50.944;6.932;2023-12-22T00:43:45;6.80;;;3.20;;
7340;SDS011;6870;50.944;6.932;2023-12-22T00:46:13;6.30;;;2.27;;
7340;SDS011;6870;50.944;6.932;2023-12-22T00:48:41;2.70;;;1.90;;
7340;SDS011;6870;50.944;6.932;2023-12-22T00:51:10;3.70;;;2.30;;
7340;SDS011;6870;50.944;6.932;2023-12-22T00:53:38;3.80;;;2.43;;
7340;SDS011;6870;50.944;6.932;2023-12-22T00:56:06;4.63;;;1.97;;
7340;SDS011;6870;50.944;6.932;2023-12-22T00:58:34;3.53;;;2.00;;
7340;SDS011;6870;50.944;6.932;2023-12-22T01:01:03;4.40;;;2.43;;
7340;SDS011;6870;50.944;6.932;2023-12-22T01:03:31;4.27;;;2.23;;
7340;SDS011;6870;50.944;6.932;2023-12-22T01:05:59;4.27;;;2.37;;
7340;SDS011;6870;50.944;6.932;2023-12-22T01:08:28;3.63;;;2.30;;
7340;SDS011;6870;50.944;6.932;2023-12-22T01:10:56;3.40;;;2.27;;
7340;SDS011;6870;50.944;6.932;2023-12-22T01:13:24;2.77;;;1.80;;
7340;SDS011;6870;50.944;6.932;2023-12-22T01:15:52;3.57;;;2.53;;
7340;SDS011;6870;50.944;6.932;2023-12-22T01:18:20;2.37;;;1.80;;
7340;SDS011;6870;50.944;6.932;2023-12-22T01:20:48;2.90;;;2.20;;
7340;SDS011;6870;50.944;6.932;2023-12-22T01:23:16;4.47;;;2.87;;
7340;SDS011;6870;50.944;6.932;2023-12-22T01:25:46;2.10;;;1.80;;
7340;SDS011;6870;50.944;6.932;2023-12-22T01:28:14;9.03;;;1.87;;
7340;SDS011;6870;50.944;6.932;2023-12-22T01:30:42;3.30;;;2.03;;
7340;SDS011;6870;50.944;6.932;2023-12-22T01:33:10;4.33;;;2.63;;
7340;SDS011;6870;50.944;6.932;2023-12-22T01:35:38;3.40;;;2.13;;
7340;SDS011;6870;50.944;6.932;2023-12-22T01:38:06;4.07;;;2.23;;
7340;SDS011;6870;50.944;6.932;2023-12-22T01:40:34;4.53;;;2.30;;
7340;SDS011;6870;50.944;6.932;2023-12-22T01:43:04;4.13;;;2.50;;
7340;SDS011;6870;50.944;6.932;2023-12-22T01:45:32;3.80;;;2.10;;
7340;SDS011;6870;50.944;6.932;2023-12-22T01:48:00;2.97;;;1.53;;
7340;SDS011;6870;50.944;6.932;2023-12-22T01:50:29;4.00;;;2.50;;
7340;SDS011;6870;50.944;6.932;2023-12-22T01:52:57;4.80;;;2.60;;
7340;SDS011;6870;50.944;6.932;2023-12-22T01:55:25;3.43;;;2.30;;
7340;SDS011;6870;50.944;6.932;2023-12-22T01:57:53;6.03;;;2.80;;
7340;SDS011;6870;50.944;6.932;2023-12-22T02:00:22;2.77;;;1.90;;
7340;SDS011;6870;50.944;6.932;2023-12-22T02:02:50;4.20;;;2.40;;
7340;SDS011;6870;50.944;6.932;2023-12-22T02:05:19;3.07;;;2.00;;
7340;SDS011;6870;50.944;6.932;2023-12-22T02:07:47;4.17;;;1.90;;
7340;SDS011;6870;50.944;6.932;2023-12-22T02:10:16;3.80;;;2.10;;
7340;SDS011;6870;50.944;6.932;2023-12-22T02:12:44;3.00;;;2.10;;
7340;SDS011;6870;50.944;6.932;2023-12-22T02:15:12;6.63;;;1.80;;
7340;SDS011;6870;50.944;6.932;2023-12-22T02:17:44;2.67;;;1.70;;
7340;SDS011;6870;50.944;6.932;2023-12-22T02:20:17;2.50;;;1.63;;
7340;SDS011;6870;50.944;6.932;2023-12-22T02:22:46;4.83;;;1.67;;
7340;SDS011;6870;50.944;6.932;2023-12-22T02:25:19;2.97;;;1.70;;
7340;SDS011;6870;50.944;6.932;2023-12-22T02:27:48;4.27;;;2.37;;
7340;SDS011;6870;50.944;6.932;2023-12-22T02:30:19;2.40;;;1.77;;
7340;SDS011;6870;50.944;6.932;2023-12-22T02:32:54;2.83;;;1.90;;
7340;SDS011;6870;50.944;6.932;2023-12-22T02:35:28;2.93;;;1.63;;
7340;SDS011;6870;50.944;6.932;2023-12-22T02:37:59;3.80;;;2.10;;
7340;SDS011;6870;50.944;6.932;2023-12-22T02:40:30;5.00;;;2.00;;
7340;SDS011;6870;50.944;6.932;2023-12-22T02:42:59;3.63;;;1.57;;
7340;SDS011;6870;50.944;6.932;2023-12-22T02:45:28;3.80;;;2.10;;
7340;SDS011;6870;50.944;6.932;2023-12-22T02:47:58;5.30;;;1.70;;
7340;SDS011;6870;50.944;6.932;2023-12-22T02:50:26;2.33;;;2.03;;
7340;SDS011;6870;50.944;6.932;2023-12-22T02:52:54;4.20;;;1.90;;
7340;SDS011;6870;50.944;6.932;2023-12-22T02:55:24;3.53;;;1.67;;
7340;SDS011;6870;50.944;6.932;2023-12-22T02:57:52;3.17;;;1.90;;
7340;SDS011;6870;50.944;6.932;2023-12-22T03:00:20;2.53;;;1.70;;
7340;SDS011;6870;50.944;6.932;2023-12-22T03:02:48;2.17;;;1.40;;
7340;SDS011;6870;50.944;6.932;2023-12-22T03:05:16;2.60;;;1.60;;
7340;SDS011;6870;50.944;6.932;2023-12-22T03:07:44;4.00;;;2.07;;
7340;SDS011;6870;50.944;6.932;2023-12-22T03:10:13;3.73;;;1.97;;
7340;SDS011;6870;50.944;6.932;2023-12-22T03:12:42;2.83;;;1.90;;
7340;SDS011;6870;50.944;6.932;2023-12-22T03:15:18;4.77;;;1.90;;
7340;SDS011;6870;50.944;6.932;2023-12-22T03:17:46;2.40;;;2.00;;
7340;SDS011;6870;50.944;6.932;2023-12-22T03:20:14;2.30;;;1.50;;
7340;SDS011;6870;50.944;6.932;2023-12-22T03:22:42;3.80;;;2.10;;
7340;SDS011;6870;50.944;6.932;2023-12-22T03:25:11;3.97;;;1.87;;
7340;SDS011;6870;50.944;6.932;2023-12-22T03:27:39;1.90;;;1.20;;
7340;SDS011;6870;50.944;6.932;2023-12-22T03:30:09;2.50;;;1.47;;
7340;SDS011;6870;50.944;6.932;2023-12-22T03:32:38;2.67;;;1.60;;
7340;SDS011;6870;50.944;6.932;2023-12-22T03:35:06;2.70;;;2.10;;
7340;SDS011;6870;50.944;6.932;2023-12-22T03:37:34;3.00;;;1.90;;
7340;SDS011;6870;50.944;6.932;2023-12-22T03:40:02;2.70;;;1.70;;
7340;SDS011;6870;50.944;6.932;2023-12-22T03:42:30;2.70;;;1.83;;
7340;SDS011;6870;50.944;6.932;2023-12-22T03:44:59;2.67;;;1.90;;
7340;SDS011;6870;50.944;6.932;2023-12-22T03:47:28;3.67;;;1.50;;
7340;SDS011;6870;50.944;6.932;2023-12-22T03:49:56;4.60;;;1.67;;
7340;SDS011;6870;50.944;6.932;2023-12-22T03:52:24;3.77;;;1.93;;
7340;SDS011;6870;50.944;6.932;2023-12-22T03:54:53;2.43;;;1.70;;
7340;SDS011;6870;50.944;6.932;2023-12-22T03:57:21;2.33;;;1.57;;
7340;SDS011;6870;50.944;6.932;2023-12-22T03:59:49;6.30;;;1.87;;
7340;SDS011;6870;50.944;6.932;2023-12-22T04:02:17;2.07;;;1.40;;
7340;SDS011;6870;50.944;6.932;2023-12-22T04:04:46;2.93;;;1.53;;
7340;SDS011;6870;50.944;6.932;2023-12-22T04:07:14;4.47;;;1.37;;
7340;SDS011;6870;50.944;6.932;2023-12-22T04:09:42;3.03;;;1.90;;
7340;SDS011;6870;50.944;6.932;2023-12-22T04:12:10;3.67;;;1.87;;
7340;SDS011;6870;50.944;6.932;2023-12-22T04:14:38;2.83;;;1.60;;
7340;SDS011;6870;50.944;6.932;2023-12-22T04:17:06;3.00;;;1.37;;
7340;SDS011;6870;50.944;6.932;2023-12-22T04:19:35;1.60;;;1.03;;
7340;SDS011;6870;50.944;6.932;2023-12-22T04:22:05;1.63;;;1.23;;
7340;SDS011;6870;50.944;6.932;2023-12-22T04:24:33;2.93;;;1.50;;
7340;SDS011;6870;50.944;6.932;2023-12-22T04:27:01;3.70;;;1.63;;
7340;SDS011;6870;50.944;6.932;2023-12-22T04:29:29;2.90;;;1.40;;
7340;SDS011;6870;50.944;6.932;2023-12-22T04:31:57;3.73;;;1.57;;
7340;SDS011;6870;50.944;6.932;2023-12-22T04:34:26;1.87;;;1.20;;
7340;SDS011;6870;50.944;6.932;2023-12-22T04:36:56;3.13;;;1.90;;
7340;SDS011;6870;50.944;6.932;2023-12-22T04:39:25;3.37;;;1.60;;
7340;SDS011;6870;50.944;6.932;2023-12-22T04:41:53;1.80;;;1.60;;
7340;SDS011;6870;50.944;6.932;2023-12-22T04:44:21;2.67;;;1.60;;
7340;SDS011;6870;50.944;6.932;2023-12-22T04:46:49;2.60;;;1.90;;
7340;SDS011;6870;50.944;6.932;2023-12-22T04:49:17;3.30;;;1.37;;
7340;SDS011;6870;50.944;6.932;2023-12-22T04:51:46;2.87;;;1.87;;
7340;SDS011;6870;50.944;6.932;2023-12-22T04:54:14;1.83;;;1.20;;
7340;SDS011;6870;50.944;6.932;2023-12-22T04:56:43;1.97;;;1.27;;
7340;SDS011;6870;50.944;6.932;2023-12-22T04:59:11;4.10;;;1.63;;
7340;SDS011;6870;50.944;6.932;2023-12-22T05:01:39;2.57;;;1.23;;
7340;SDS011;6870;50.944;6.932;2023-12-22T05:04:09;3.30;;;1.57;;
7340;SDS011;6870;50.944;6.932;2023-12-22T05:06:37;3.07;;;1.50;;
7340;SDS011;6870;50.944;6.932;2023-12-22T05:09:05;2.03;;;1.13;;
7340;SDS011;6870;50.944;6.932;2023-12-22T05:11:34;2.40;;;1.30;;
7340;SDS011;6870;50.944;6.932;2023-12-22T05:14:03;2.50;;;1.50;;
7340;SDS011;6870;50.944;6.932;2023-12-22T05:16:31;1.93;;;1.20;;
7340;SDS011;6870;50.944;6.932;2023-12-22T05:19:00;1.73;;;1.20;;
7340;SDS011;6870;50.944;6.932;2023-12-22T05:21:28;3.10;;;1.80;;
7340;SDS011;6870;50.944;6.932;2023-12-22T05:23:56;2.53;;;2.00;;
7340;SDS011;6870;50.944;6.932;2023-12-22T05:26:25;2.80;;;1.23;;
7340;SDS011;6870;50.944;6.932;2023-12-22T05:28:56;3.53;;;1.20;;
7340;SDS011;6870;50.944;6.932;2023-12-22T05:31:25;3.20;;;1.60;;
7340;SDS011;6870;50.944;6.932;2023-12-22T05:33:54;1.90;;;1.07;;
7340;SDS011;6870;50.944;6.932;2023-12-22T05:36:22;5.30;;;1.67;;
7340;SDS011;6870;50.944;6.932;2023-12-22T05:38:51;8.57;;;2.00;;
7340;SDS011;6870;50.944;6.932;2023-12-22T05:41:20;6.97;;;2.43;;
7340;SDS011;6870;50.944;6.932;2023-12-22T05:43:48;12.87;;;3.00;;
7340;SDS011;6870;50.944;6.932;2023-12-22T05:46:16;12.47;;;2.60;;
7340;SDS011;6870;50.944;6.932;2023-12-22T05:48:45;18.00;;;2.93;;
7340;SDS011;6870;50.944;6.932;2023-12-22T05:51:14;15.10;;;1.97;;
7340;SDS011;6870;50.944;6.932;2023-12-22T05:53:42;9.83;;;2.63;;
7340;SDS011;6870;50.944;6.932;2023-12-22T05:56:16;13.30;;;3.07;;
7340;SDS011;6870;50.944;6.932;2023-12-22T05:58:45;20.40;;;2.40;;
7340;SDS011;6870;50.944;6.932;2023-12-22T06:01:17;8.80;;;2.93;;
7340;SDS011;6870;50.944;6.932;2023-12-22T06:03:47;4.90;;;2.00;;
7340;SDS011;6870;50.944;6.932;2023-12-22T06:06:15;5.77;;;2.27;;
7340;SDS011;6870;50.944;6.932;2023-12-22T06:08:44;9.93;;;2.00;;
7340;SDS011;6870;50.944;6.932;2023-12-22T06:11:13;4.83;;;1.90;;
7340;SDS011;6870;50.944;6.932;2023-12-22T06:13:44;6.43;;;1.90;;
7340;SDS011;6870;50.944;6.932;2023-12-22T06:16:14;11.07;;;2.17;;
7340;SDS011;6870;50.944;6.932;2023-12-22T06:18:44;6.40;;;2.20;;
7340;SDS011;6870;50.944;6.932;2023-12-22T06:21:14;9.90;;;2.30;;
7340;SDS011;6870;50.944;6.932;2023-12-22T06:23:42;5.33;;;1.80;;
7340;SDS011;6870;50.944;6.932;2023-12-22T06:26:10;7.30;;;2.63;;
7340;SDS011;6870;50.944;6.932;2023-12-22T06:28:41;3.60;;;1.50;;
7340;SDS011;6870;50.944;6.932;2023-12-22T06:31:16;5.53;;;2.10;;
7340;SDS011;6870;50.944;6.932;2023-12-22T06:33:47;4.97;;;2.23;;
7340;SDS011;6870;50.944;6.932;2023-12-22T06:36:20;30.37;;;3.03;;
7340;SDS011;6870;50.944;6.932;2023-12-22T06:38:48;9.70;;;2.00;;
7340;SDS011;6870;50.944;6.932;2023-12-22T06:41:20;18.00;;;2.03;;
7340;SDS011;6870;50.944;6.932;2023-12-22T06:43:53;7.43;;;2.10;;
7340;SDS011;6870;50.944;6.932;2023-12-22T06:46:23;8.97;;;3.27;;
7340;SDS011;6870;50.944;6.932;2023-12-22T06:48:54;9.63;;;2.40;;
7340;SDS011;6870;50.944;6.932;2023-12-22T06:51:24;9.63;;;3.90;;
7340;SDS011;6870;50.944;6.932;2023-12-22T06:53:54;4.40;;;2.53;;
7340;SDS011;6870;50.944;6.932;2023-12-22T06:56:24;5.27;;;2.63;;
7340;SDS011;6870;50.944;6.932;2023-12-22T06:58:54;5.27;;;2.80;;
7340;SDS011;6870;50.944;6.932;2023-12-22T07:01:25;6.13;;;2.57;;
7340;SDS011;6870;50.944;6.932;2023-12-22T07:03:58;3.83;;;2.20;;
7340;SDS011;6870;50.944;6.932;2023-12-22T07:06:30;3.90;;;2.30;;
7340;SDS011;6870;50.944;6.932;2023-12-22T07:11:58;5.73;;;3.10;;
7340;SDS011;6870;50.944;6.932;2023-12-22T07:14:27;5.33;;;2.53;;
7340;SDS011;6870;50.944;6.932;2023-12-22T07:16:55;5.83;;;3.13;;
7340;SDS011;6870;50.944;6.932;2023-12-22T07:19:26;6.37;;;2.50;;
7340;SDS011;6870;50.944;6.932;2023-12-22T07:21:54;6.10;;;3.17;;
7340;SDS011;6870;50.944;6.932;2023-12-22T07:24:22;4.90;;;3.17;;
7340;SDS011;6870;50.944;6.932;2023-12-22T07:26:50;5.00;;;2.57;;
7340;SDS011;6870;50.944;6.932;2023-12-22T07:29:19;4.93;;;2.50;;
7340;SDS011;6870;50.944;6.932;2023-12-22T07:31:47;6.07;;;2.87;;
7340;SDS011;6870;50.944;6.932;2023-12-22T07:34:15;6.13;;;2.83;;
7340;SDS011;6870;50.944;6.932;2023-12-22T07:36:46;4.40;;;2.73;;
7340;SDS011;6870;50.944;6.932;2023-12-22T07:39:28;7.77;;;3.03;;
7340;SDS011;6870;50.944;6.932;2023-12-22T07:41:56;8.93;;;3.87;;
7340;SDS011;6870;50.944;6.932;2023-12-22T07:44:24;5.33;;;2.40;;
7340;SDS011;6870;50.944;6.932;2023-12-22T07:46:56;6.77;;;2.70;;
7340;SDS011;6870;50.944;6.932;2023-12-22T07:49:25;9.63;;;3.00;;
7340;SDS011;6870;50.944;6.932;2023-12-22T07:51:57;8.53;;;3.67;;
7340;SDS011;6870;50.944;6.932;2023-12-22T07:54:28;4.83;;;2.20;;
7340;SDS011;6870;50.944;6.932;2023-12-22T07:56:56;8.20;;;2.83;;
7340;SDS011;6870;50.944;6.932;2023-12-22T07:59:24;3.63;;;2.27;;
7340;SDS011;6870;50.944;6.932;2023-12-22T08:01:57;6.93;;;2.60;;
7340;SDS011;6870;50.944;6.932;2023-12-22T08:04:26;8.90;;;3.03;;
7340;SDS011;6870;50.944;6.932;2023-12-22T08:06:54;6.40;;;3.00;;
7340;SDS011;6870;50.944;6.932;2023-12-22T08:09:24;5.90;;;2.40;;
7340;SDS011;6870;50.944;6.932;2023-12-22T08:11:52;3.93;;;2.37;;
7340;SDS011;6870;50.944;6.932;2023-12-22T08:14:22;4.30;;;2.50;;
7340;SDS011;6870;50.944;6.932;2023-12-22T08:16:50;6.00;;;2.50;;
7340;SDS011;6870;50.944;6.932;2023-12-22T08:19:18;3.70;;;2.37;;
7340;SDS011;6870;50.944;6.932;2023-12-22T08:21:48;5.20;;;2.70;;
7340;SDS011;6870;50.944;6.932;2023-12-22T08:24:18;3.67;;;2.07;;
7340;SDS011;6870;50.944;6.932;2023-12-22T08:26:50;3.93;;;2.00;;
7340;SDS011;6870;50.944;6.932;2023-12-22T08:29:24;5.27;;;3.37;;
7340;SDS011;6870;50.944;6.932;2023-12-22T08:31:52;4.87;;;2.87;;
7340;SDS011;6870;50.944;6.932;2023-12-22T08:34:21;7.47;;;2.37;;
7340;SDS011;6870;50.944;6.932;2023-12-22T08:36:49;4.97;;;2.70;;
7340;SDS011;6870;50.944;6.932;2023-12-22T08:39:17;4.60;;;2.40;;
7340;SDS011;6870;50.944;6.932;2023-12-22T08:41:46;5.20;;;2.17;;
7340;SDS011;6870;50.944;6.932;2023-12-22T08:44:16;4.30;;;2.60;;
7340;SDS011;6870;50.944;6.932;2023-12-22T08:46:44;6.10;;;2.30;;
7340;SDS011;6870;50.944;6.932;2023-12-22T08:49:12;4.40;;;2.50;;
7340;SDS011;6870;50.944;6.932;2023-12-22T08:51:40;5.07;;;1.90;;
7340;SDS011;6870;50.944;6.932;2023-12-22T08:54:09;3.77;;;1.80;;
7340;SDS011;6870;50.944;6.932;2023-12-22T08:56:37;4.40;;;2.53;;
7340;SDS011;6870;50.944;6.932;2023-12-22T08:59:05;4.30;;;2.07;;
7340;SDS011;6870;50.944;6.932;2023-12-22T09:01:36;4.73;;;2.10;;
7340;SDS011;6870;50.944;6.932;2023-12-22T09:04:04;6.07;;;2.43;;
7340;SDS011;6870;50.944;6.932;2023-12-22T09:06:35;6.63;;;2.70;;
7340;SDS011;6870;50.944;6.932;2023-12-22T09:09:03;7.67;;;2.63;;
7340;SDS011;6870;50.944;6.932;2023-12-22T09:11:31;7.37;;;2.80;;
7340;SDS011;6870;50.944;6.932;2023-12-22T09:13:58;5.50;;;1.90;;
7340;SDS011;6870;50.944;6.932;2023-12-22T09:16:26;4.07;;;1.67;;
7340;SDS011;6870;50.944;6.932;2023-12-22T09:18:56;6.97;;;2.10;;
7340;SDS011;6870;50.944;6.932;2023-12-22T09:21:24;6.80;;;2.57;;
7340;SDS011;6870;50.944;6.932;2023-12-22T09:23:52;6.27;;;2.47;;
7340;SDS011;6870;50.944;6.932;2023-12-22T09:26:20;4.20;;;2.13;;
7340;SDS011;6870;50.944;6.932;2023-12-22T09:28:51;6.60;;;2.00;;
7340;SDS011;6870;50.944;6.932;2023-12-22T09:31:19;5.87;;;2.80;;
7340;SDS011;6870;50.944;6.932;2023-12-22T09:33:48;4.17;;;2.20;;
7340;SDS011;6870;50.944;6.932;2023-12-22T09:36:18;3.40;;;2.13;;
7340;SDS011;6870;50.944;6.932;2023-12-22T09:38:46;4.97;;;2.10;;
7340;SDS011;6870;50.944;6.932;2023-12-22T09:41:14;5.13;;;2.00;;
7340;SDS011;6870;50.944;6.932;2023-12-22T09:43:42;4.20;;;2.00;;
7340;SDS011;6870;50.944;6.932;2023-12-22T09:46:17;7.17;;;2.60;;
7340;SDS011;6870;50.944;6.932;2023-12-22T09:48:46;4.57;;;1.80;;
7340;SDS011;6870;50.944;6.932;2023-12-22T09:51:15;3.67;;;2.00;;
7340;SDS011;6870;50.944;6.932;2023-12-22T09:53:46;4.93;;;2.20;;
7340;SDS011;6870;50.944;6.932;2023-12-22T09:56:17;5.33;;;2.93;;
7340;SDS011;6870;50.944;6.932;2023-12-22T09:58:46;6.23;;;2.60;;
7340;SDS011;6870;50.944;6.932;2023-12-22T10:01:16;6.63;;;3.23;;
7340;SDS011;6870;50.944;6.932;2023-12-22T10:03:47;5.00;;;3.40;;
7340;SDS011;6870;50.944;6.932;2023-12-22T10:06:16;6.10;;;3.90;;
7340;SDS011;6870;50.944;6.932;2023-12-22T10:08:45;4.77;;;3.13;;
7340;SDS011;6870;50.944;6.932;2023-12-22T10:11:17;7.73;;;3.50;;
7340;SDS011;6870;50.944;6.932;2023-12-22T10:13:48;6.73;;;2.90;;
7340;SDS011;6870;50.944;6.932;2023-12-22T10:16:20;6.27;;;3.00;;
7340;SDS011;6870;50.944;6.932;2023-12-22T10:18:48;6.87;;;2.87;;
7340;SDS011;6870;50.944;6.932;2023-12-22T10:21:17;4.80;;;2.40;;
7340;SDS011;6870;50.944;6.932;2023-12-22T10:23:46;5.70;;;2.80;;
7340;SDS011;6870;50.944;6.932;2023-12-22T10:26:14;5.17;;;3.23;;
7340;SDS011;6870;50.944;6.932;2023-12-22T10:28:43;5.37;;;2.90;;
7340;SDS011;6870;50.944;6.932;2023-12-22T10:31:14;7.53;;;3.10;;
7340;SDS011;6870;50.944;6.932;2023-12-22T10:33:42;7.10;;;3.03;;
7340;SDS011;6870;50.944;6.932;2023-12-22T10:36:11;5.20;;;2.60;;
7340;SDS011;6870;50.944;6.932;2023-12-22T10:38:39;5.90;;;2.93;;
7340;SDS011;6870;50.944;6.932;2023-12-22T10:41:10;5.73;;;3.20;;
7340;SDS011;6870;50.944;6.932;2023-12-22T10:43:39;7.57;;;3.20;;
7340;SDS011;6870;50.944;6.932;2023-12-22T10:46:08;4.73;;;3.20;;
7340;SDS011;6870;50.944;6.932;2023-12-22T10:48:37;6.00;;;2.63;;
7340;SDS011;6870;50.944;6.932;2023-12-22T10:51:08;5.80;;;2.87;;
7340;SDS011;6870;50.944;6.932;2023-12-22T10:53:40;6.50;;;3.00;;
7340;SDS011;6870;50.944;6.932;2023-12-22T10:56:10;6.93;;;2.83;;
7340;SDS011;6870;50.944;6.932;2023-12-22T10:58:38;6.67;;;3.00;;
7340;SDS011;6870;50.944;6.932;2023-12-22T11:01:07;10.87;;;3.00;;
7340;SDS011;6870;50.944;6.932;2023-12-22T11:03:37;7.47;;;3.23;;
7340;SDS011;6870;50.944;6.932;2023-12-22T11:06:12;5.27;;;3.20;;
7340;SDS011;6870;50.944;6.932;2023-12-22T11:08:43;4.77;;;3.07;;
7340;SDS011;6870;50.944;6.932;2023-12-22T11:11:16;4.97;;;3.03;;
7340;SDS011;6870;50.944;6.932;2023-12-22T11:13:48;9.37;;;4.03;;
7340;SDS011;6870;50.944;6.932;2023-12-22T11:16:18;9.83;;;3.80;;
7340;SDS011;6870;50.944;6.932;2023-12-22T11:18:48;7.90;;;4.00;;
7340;SDS011;6870;50.944;6.932;2023-12-22T11:21:21;8.37;;;3.27;;
7340;SDS011;6870;50.944;6.932;2023-12-22T11:23:50;12.03;;;4.33;;
7340;SDS011;6870;50.944;6.932;2023-12-22T11:26:21;11.00;;;4.73;;
7340;SDS011;6870;50.944;6.932;2023-12-22T11:28:51;5.03;;;3.40;;
7340;SDS011;6870;50.944;6.932;2023-12-22T11:31:20;8.10;;;2.97;;
7340;SDS011;6870;50.944;6.932;2023-12-22T11:33:48;12.57;;;3.23;;
7340;SDS011;6870;50.944;6.932;2023-12-22T11:36:30;10.10;;;4.27;;
7340;SDS011;6870;50.944;6.932;2023-12-22T11:38:59;10.57;;;4.20;;
7340;SDS011;6870;50.944;6.932;2023-12-22T11:41:30;4.43;;;3.00;;
7340;SDS011;6870;50.944;6.932;2023-12-22T11:44:01;11.37;;;3.60;;
7340;SDS011;6870;50.944;6.932;2023-12-22T11:46:33;8.60;;;3.70;;
7340;SDS011;6870;50.944;6.932;2023-12-22T11:49:01;5.37;;;3.27;;
7340;SDS011;6870;50.944;6.932;2023-12-22T11:51:33;9.60;;;3.70;;
7340;SDS011;6870;50.944;6.932;2023-12-22T11:54:02;7.13;;;3.07;;
7340;SDS011;6870;50.944;6.932;2023-12-22T11:56:31;9.43;;;3.30;;
7340;SDS011;6870;50.944;6.932;2023-12-22T11:59:02;4.20;;;2.80;;
7340;SDS011;6870;50.944;6.932;2023-12-22T12:01:30;5.70;;;3.20;;
7340;SDS011;6870;50.944;6.932;2023-12-22T12:04:06;7.60;;;3.67;;
7340;SDS011;6870;50.944;6.932;2023-12-22T12:06:35;5.33;;;2.80;;
7340;SDS011;6870;50.944;6.932;2023-12-22T12:09:05;4.30;;;2.70;;
7340;SDS011;6870;50.944;6.932;2023-12-22T12:14:40;7.50;;;2.60;;
7340;SDS011;6870;50.944;6.932;2023-12-22T12:17:11;7.40;;;2.77;;
7340;SDS011;6870;50.944;6.932;2023-12-22T12:19:44;5.73;;;3.20;;
7340;SDS011;6870;50.944;6.932;2023-12-22T12:22:15;6.00;;;3.00;;
7340;SDS011;6870;50.944;6.932;2023-12-22T12:24:44;11.00;;;3.20;;
7340;SDS011;6870;50.944;6.932;2023-12-22T12:27:16;4.93;;;2.40;;
7340;SDS011;6870;50.944;6.932;2023-12-22T12:29:45;5.40;;;2.90;;
7340;SDS011;6870;50.944;6.932;2023-12-22T12:32:14;5.40;;;2.77;;
7340;SDS011;6870;50.944;6.932;2023-12-22T12:34:42;8.40;;;2.53;;
7340;SDS011;6870;50.944;6.932;2023-12-22T12:37:11;3.63;;;2.53;;
7340;SDS011;6870;50.944;6.932;2023-12-22T12:39:40;4.27;;;2.70;;
7340;SDS011;6870;50.944;6.932;2023-12-22T12:42:11;6.23;;;2.73;;
7340;SDS011;6870;50.944;6.932;2023-12-22T12:44:44;4.87;;;2.70;;
7340;SDS011;6870;50.944;6.932;2023-12-22T12:47:14;7.43;;;3.50;;
7340;SDS011;6870;50.944;6.932;2023-12-22T12:49:43;8.80;;;3.53;;
7340;SDS011;6870;50.944;6.932;2023-12-22T12:52:12;7.97;;;3.33;;
7340;SDS011;6870;50.944;6.932;2023-12-22T12:54:44;10.30;;;3.40;;
7340;SDS011;6870;50.944;6.932;2023-12-22T12:57:15;5.97;;;3.10;;
7340;SDS011;6870;50.944;6.932;2023-12-22T12:59:45;5.80;;;2.70;;
7340;SDS011;6870;50.944;6.932;2023-12-22T13:02:15;5.70;;;2.80;;
7340;SDS011;6870;50.944;6.932;2023-12-22T13:04:44;8.10;;;3.20;;
7340;SDS011;6870;50.944;6.932;2023-12-22T13:07:12;7.87;;;3.37;;
7340;SDS011;6870;50.944;6.932;2023-12-22T13:09:41;5.83;;;3.13;;
7340;SDS011;6870;50.944;6.932;2023-12-22T13:12:09;6.00;;;3.37;;
7340;SDS011;6870;50.944;6.932;2023-12-22T13:14:39;9.03;;;3.43;;
7340;SDS011;6870;50.944;6.932;2023-12-22T13:17:07;4.37;;;2.40;;
7340;SDS011;6870;50.944;6.932;2023-12-22T13:19:37;4.87;;;2.40;;
7340;SDS011;6870;50.944;6.932;2023-12-22T13:22:06;6.97;;;2.17;;
7340;SDS011;6870;50.944;6.932;2023-12-22T13:24:34;5.03;;;2.70;;
7340;SDS011;6870;50.944;6.932;2023-12-22T13:27:03;5.50;;;2.27;;
7340;SDS011;6870;50.944;6.932;2023-12-22T13:29:44;4.73;;;2.43;;
7340;SDS011;6870;50.944;6.932;2023-12-22T13:32:15;6.17;;;2.60;;
7340;SDS011;6870;50.944;6.932;2023-12-22T13:34:48;5.33;;;3.10;;
7340;SDS011;6870;50.944;6.932;2023-12-22T13:37:17;7.83;;;2.90;;
7340;SDS011;6870;50.944;6.932;2023-12-22T13:39:46;6.03;;;2.67;;
7340;SDS011;6870;50.944;6.932;2023-12-22T13:42:18;5.57;;;2.97;;
7340;SDS011;6870;50.944;6.932;2023-12-22T13:44:48;4.07;;;2.40;;
7340;SDS011;6870;50.944;6.932;2023-12-22T13:47:18;3.10;;;2.47;;
7340;SDS011;6870;50.944;6.932;2023-12-22T13:49:47;4.97;;;2.20;;
7340;SDS011;6870;50.944;6.932;2023-12-22T13:52:25;4.47;;;2.30;;
7340;SDS011;6870;50.944;6.932;2023-12-22T13:54:55;5.47;;;2.70;;
7340;SDS011;6870;50.944;6.932;2023-12-22T13:57:24;2.90;;;1.97;;
7340;SDS011;6870;50.944;6.932;2023-12-22T13:59:54;4.50;;;2.30;;
7340;SDS011;6870;50.944;6.932;2023-12-22T14:02:22;5.03;;;2.53;;
7340;SDS011;6870;50.944;6.932;2023-12-22T14:04:51;3.27;;;2.07;;
7340;SDS011;6870;50.944;6.932;2023-12-22T14:07:20;4.37;;;1.60;;
7340;SDS011;6870;50.944;6.932;2023-12-22T14:09:48;6.80;;;3.20;;
7340;SDS011;6870;50.944;6.932;2023-12-22T14:12:16;5.97;;;2.40;;
7340;SDS011;6870;50.944;6.932;2023-12-22T14:14:55;4.23;;;2.47;;
7340;SDS011;6870;50.944;6.932;2023-12-22T14:17:23;4.00;;;2.10;;
7340;SDS011;6870;50.944;6.932;2023-12-22T14:19:54;4.40;;;2.40;;
7340;SDS011;6870;50.944;6.932;2023-12-22T14:22:23;3.43;;;1.80;;
7340;SDS011;6870;50.944;6.932;2023-12-22T14:24:51;2.33;;;1.93;;
7340;SDS011;6870;50.944;6.932;2023-12-22T14:27:20;2.97;;;1.83;;
7340;SDS011;6870;50.944;6.932;2023-12-22T14:29:51;5.80;;;2.30;;
7340;SDS011;6870;50.944;6.932;2023-12-22T14:32:20;5.80;;;2.23;;
7340;SDS011;6870;50.944;6.932;2023-12-22T14:34:49;2.67;;;1.67;;
7340;SDS011;6870;50.944;6.932;2023-12-22T14:37:17;3.47;;;1.90;;
7340;SDS011;6870;50.944;6.932;2023-12-22T14:39:46;2.27;;;1.53;;
7340;SDS011;6870;50.944;6.932;2023-12-22T14:42:14;4.17;;;2.33;;
7340;SDS011;6870;50.944;6.932;2023-12-22T14:44:43;4.70;;;2.50;;
7340;SDS011;6870;50.944;6.932;2023-12-22T14:47:11;4.10;;;3.13;;
7340;SDS011;6870;50.944;6.932;2023-12-22T14:49:41;7.73;;;3.80;;
7340;SDS011;6870;50.944;6.932;2023-12-22T14:52:09;8.23;;;4.37;;
7340;SDS011;6870;50.944;6.932;2023-12-22T14:54:37;6.00;;;3.93;;
7340;SDS011;6870;50.944;6.932;2023-12-22T14:57:05;8.30;;;5.10;;
7340;SDS011;6870;50.944;6.932;2023-12-22T14:59:34;10.47;;;4.90;;
7340;SDS011;6870;50.944;6.932;2023-12-22T15:02:02;9.83;;;4.47;;
7340;SDS011;6870;50.944;6.932;2023-12-22T15:04:33;9.03;;;4.37;;
7340;SDS011;6870;50.944;6.932;2023-12-22T15:07:03;8.97;;;4.40;;
7340;SDS011;6870;50.944;6.932;2023-12-22T15:09:31;9.53;;;4.90;;
7340;SDS011;6870;50.944;6.932;2023-12-22T15:12:01;7.93;;;5.33;;
7340;SDS011;6870;50.944;6.932;2023-12-22T15:14:32;10.70;;;4.37;;
7340;SDS011;6870;50.944;6.932;2023-12-22T15:17:00;6.10;;;4.83;;
7340;SDS011;6870;50.944;6.932;2023-12-22T15:19:29;12.13;;;4.40;;
7340;SDS011;6870;50.944;6.932;2023-12-22T15:21:57;10.77;;;5.00;;
7340;SDS011;6870;50.944;6.932;2023-12-22T15:24:29;5.83;;;4.80;;
7340;SDS011;6870;50.944;6.932;2023-12-22T15:26:58;7.43;;;3.63;;
7340;SDS011;6870;50.944;6.932;2023-12-22T15:29:27;6.80;;;4.30;;
7340;SDS011;6870;50.944;6.932;2023-12-22T15:31:55;10.43;;;5.53;;
7340;SDS011;6870;50.944;6.932;2023-12-22T15:34:26;9.50;;;4.37;;